Time;durP1;ratioP1;P1;durP2;ratioP2;P2;SDS_P1;SDS_P2;PMS_P1;PMS_P2;Temp;Humidity;BMP_temperature;BMP_pressure;BME280_temperature;BME280_humidity;BME280_pressure;Samples;Min_cycle;Max_cycle;Signal;HPM_P1;HPM_P2
2021/10/19 00:00:14;;;;;;;3.33;2.70;;;14.90;99.90;;;;;;5061483;28;20450;-67
2021/10/19 00:02:45;;;;;;;4.27;2.40;;;15.00;99.90;;;;;;5047248;28;20452;-68
2021/10/19 00:05:18;;;;;;;3.87;2.87;;;14.80;99.90;;;;;;5050175;28;20521;-68
2021/10/19 00:07:48;;;;;;;3.83;2.60;;;14.60;99.90;;;;;;5067447;28;20525;-67
2021/10/19 00:10:19;;;;;;;2.90;2.40;;;14.40;99.90;;;;;;5060180;28;20484;-69
2021/10/19 00:12:50;;;;;;;3.17;2.80;;;14.20;99.90;;;;;;5050829;28;20456;-70
2021/10/19 00:15:22;;;;;;;6.00;2.83;;;14.10;99.90;;;;;;5057847;28;20536;-70
2021/10/19 00:17:52;;;;;;;4.97;2.63;;;14.00;99.90;;;;;;5064137;28;20459;-68
2021/10/19 00:20:25;;;;;;;8.30;3.60;;;13.90;99.90;;;;;;5060798;28;20452;-68
2021/10/19 00:22:56;;;;;;;3.90;2.70;;;13.90;99.90;;;;;;5059053;28;20834;-68
2021/10/19 00:25:26;;;;;;;3.80;2.50;;;13.80;99.90;;;;;;5061043;28;20547;-68
2021/10/19 00:27:57;;;;;;;2.80;2.47;;;13.70;99.90;;;;;;5055082;28;20785;-70
2021/10/19 00:30:28;;;;;;;6.00;3.00;;;13.70;99.90;;;;;;5070570;28;20860;-68
2021/10/19 00:32:59;;;;;;;6.00;3.33;;;13.50;99.90;;;;;;5051875;28;20523;-68
2021/10/19 00:35:31;;;;;;;3.57;3.10;;;13.50;99.90;;;;;;5050407;28;20458;-68
2021/10/19 00:38:02;;;;;;;4.13;3.20;;;13.40;99.90;;;;;;5037143;28;20449;-70
2021/10/19 00:40:35;;;;;;;4.63;3.10;;;13.30;99.90;;;;;;5050370;28;20445;-68
2021/10/19 00:43:07;;;;;;;5.83;3.80;;;13.10;99.90;;;;;;5059622;28;20640;-67
2021/10/19 00:45:37;;;;;;;20.00;12.10;;;13.00;99.90;;;;;;5050462;28;20456;-68
2021/10/19 00:48:10;;;;;;;7.93;5.20;;;12.80;99.90;;;;;;5047074;28;20475;-68
2021/10/19 00:50:43;;;;;;;4.00;3.33;;;12.70;99.90;;;;;;5046355;28;20522;-68
2021/10/19 00:53:15;;;;;;;4.20;3.80;;;12.70;99.90;;;;;;5048594;28;20471;-67
2021/10/19 00:55:46;;;;;;;10.53;4.53;;;12.70;99.90;;;;;;5049917;28;20463;-68
2021/10/19 00:58:16;;;;;;;7.10;4.30;;;12.50;99.90;;;;;;5060984;28;20536;-68
2021/10/19 01:00:47;;;;;;;5.87;4.30;;;12.40;99.90;;;;;;5048108;28;20453;-68
2021/10/19 01:03:18;;;;;;;5.17;3.80;;;12.30;99.90;;;;;;5057668;28;20454;-68
2021/10/19 01:05:51;;;;;;;6.00;3.80;;;12.20;99.90;;;;;;5061871;28;20468;-68
2021/10/19 01:08:22;;;;;;;5.27;3.90;;;12.10;99.90;;;;;;5057601;28;20474;-68
2021/10/19 01:10:53;;;;;;;5.20;3.90;;;12.00;99.90;;;;;;5054963;28;21038;-67
2021/10/19 01:13:24;;;;;;;5.20;4.43;;;12.00;99.90;;;;;;5052501;28;20494;-68
2021/10/19 01:16:05;;;;;;;5.17;4.03;;;11.90;99.90;;;;;;5068076;28;20498;-68
2021/10/19 01:18:37;;;;;;;4.10;3.40;;;11.80;99.90;;;;;;5051794;28;20562;-68
2021/10/19 01:21:11;;;;;;;5.27;3.97;;;11.80;99.90;;;;;;5049830;28;20914;-68
2021/10/19 01:23:42;;;;;;;5.07;4.03;;;11.60;99.90;;;;;;5059677;28;20472;-68
2021/10/19 01:26:12;;;;;;;9.47;3.93;;;11.50;99.90;;;;;;5051437;28;20946;-68
2021/10/19 01:28:44;;;;;;;6.60;4.10;;;11.40;99.90;;;;;;5061982;28;20451;-68
2021/10/19 01:31:16;;;;;;;7.10;3.97;;;11.40;99.90;;;;;;5061238;28;20837;-67
2021/10/19 01:33:47;;;;;;;8.33;4.30;;;11.30;99.90;;;;;;5056515;28;20467;-68
2021/10/19 01:36:19;;;;;;;4.80;4.27;;;11.20;99.90;;;;;;5069299;28;20910;-68
2021/10/19 01:38:50;;;;;;;6.07;4.53;;;11.10;99.90;;;;;;5062062;28;20464;-68
2021/10/19 01:41:21;;;;;;;6.63;4.30;;;11.00;99.90;;;;;;5049240;28;20519;-68
2021/10/19 01:43:53;;;;;;;7.33;4.80;;;11.00;99.90;;;;;;5052584;28;20520;-68
2021/10/19 01:46:24;;;;;;;4.80;4.20;;;10.90;99.90;;;;;;5059307;28;20484;-68
2021/10/19 01:48:56;;;;;;;8.50;5.27;;;10.80;99.90;;;;;;5054460;28;20817;-68
2021/10/19 01:51:29;;;;;;;7.72;4.80;;;10.80;99.90;;;;;;5058917;28;20487;-68
2021/10/19 01:54:00;;;;;;;7.05;5.30;;;10.70;99.90;;;;;;5059058;28;20228;-67
2021/10/19 01:56:31;;;;;;;6.65;6.03;;;10.60;99.90;;;;;;5055538;28;20244;-68
2021/10/19 01:59:01;;;;;;;8.15;5.10;;;10.60;99.90;;;;;;5063898;28;20217;-68
2021/10/19 02:01:32;;;;;;;6.03;5.45;;;10.50;99.90;;;;;;5050706;28;20222;-68
2021/10/19 02:04:03;;;;;;;8.82;7.53;;;10.50;99.90;;;;;;5048556;28;20249;-68
2021/10/19 02:06:35;;;;;;;10.68;7.75;;;10.40;99.90;;;;;;5047133;28;20229;-68
2021/10/19 02:09:06;;;;;;;10.02;7.35;;;10.30;99.90;;;;;;5048789;28;20668;-67
2021/10/19 02:11:37;;;;;;;9.70;7.67;;;10.30;99.90;;;;;;5046937;28;20229;-68
2021/10/19 02:14:08;;;;;;;14.68;10.65;;;10.20;99.90;;;;;;5056961;28;20448;-68
2021/10/19 02:16:39;;;;;;;16.90;11.80;;;10.10;99.90;;;;;;5056634;28;20218;-68
2021/10/19 02:19:09;;;;;;;15.80;12.05;;;10.00;99.90;;;;;;5046023;28;20460;-68
2021/10/19 02:21:42;;;;;;;21.02;13.60;;;10.00;99.90;;;;;;5056960;28;20213;-68
2021/10/19 02:24:13;;;;;;;13.77;9.88;;;10.00;99.90;;;;;;5037157;28;20209;-68
2021/10/19 02:26:43;;;;;;;11.23;8.45;;;9.90;99.90;;;;;;5040170;28;20599;-67
2021/10/19 02:29:15;;;;;;;14.00;8.18;;;9.90;99.90;;;;;;5057859;28;20217;-69
2021/10/19 02:31:46;;;;;;;8.90;7.68;;;9.90;99.90;;;;;;5062553;28;20244;-70
2021/10/19 02:34:17;;;;;;;10.38;7.43;;;9.80;99.90;;;;;;5054095;28;20237;-69
2021/10/19 02:36:50;;;;;;;9.50;6.65;;;9.80;99.90;;;;;;5072717;28;20236;-70
2021/10/19 02:39:21;;;;;;;10.32;7.28;;;9.80;99.90;;;;;;5061001;28;20320;-70
2021/10/19 02:41:51;;;;;;;7.78;6.90;;;9.80;99.90;;;;;;5052975;28;20205;-70
2021/10/19 02:44:22;;;;;;;9.82;7.03;;;9.70;99.90;;;;;;5059476;28;20224;-69
2021/10/19 02:46:53;;;;;;;8.60;7.70;;;9.60;99.90;;;;;;5063334;28;20248;-69
2021/10/19 02:49:24;;;;;;;8.90;7.68;;;9.60;99.90;;;;;;5061148;28;20299;-70
2021/10/19 02:51:56;;;;;;;10.23;8.05;;;9.50;99.90;;;;;;5056519;28;20676;-70
2021/10/19 02:54:27;;;;;;;8.75;7.50;;;9.50;99.90;;;;;;5057446;28;20229;-69
2021/10/19 02:56:57;;;;;;;8.02;7.18;;;9.50;99.90;;;;;;5050693;28;20228;-70
2021/10/19 02:59:28;;;;;;;9.32;8.38;;;9.30;99.90;;;;;;5059287;28;20217;-69
2021/10/19 03:01:59;;;;;;;9.40;8.15;;;9.30;99.90;;;;;;5052477;28;20649;-69
2021/10/19 03:04:30;;;;;;;9.95;8.93;;;9.30;99.90;;;;;;5070637;28;20319;-69
2021/10/19 03:07:02;;;;;;;10.07;8.85;;;9.20;99.90;;;;;;5070380;28;20241;-70
2021/10/19 03:09:33;;;;;;;11.23;9.55;;;9.30;99.90;;;;;;5062667;28;20217;-70
2021/10/19 03:12:04;;;;;;;13.70;11.20;;;9.20;99.90;;;;;;5050499;28;20229;-69
2021/10/19 03:14:35;;;;;;;12.75;11.45;;;9.10;99.90;;;;;;5063255;28;20217;-70
2021/10/19 03:17:06;;;;;;;13.98;11.48;;;9.00;99.90;;;;;;5053164;28;20646;-70
2021/10/19 03:19:37;;;;;;;12.77;11.27;;;9.00;99.90;;;;;;5062525;28;20635;-67
2021/10/19 03:22:09;;;;;;;14.23;12.57;;;9.00;99.90;;;;;;5069922;28;20328;-67
2021/10/19 03:24:40;;;;;;;12.25;10.98;;;9.10;99.90;;;;;;5059770;28;20218;-70
2021/10/19 03:27:11;;;;;;;14.73;11.93;;;8.90;99.90;;;;;;5050303;28;20306;-70
2021/10/19 03:29:42;;;;;;;13.18;11.70;;;8.90;99.90;;;;;;5040131;28;20217;-70
2021/10/19 03:32:13;;;;;;;12.60;11.25;;;8.90;99.90;;;;;;5057616;28;20257;-69
2021/10/19 03:34:44;;;;;;;14.35;11.93;;;8.90;99.90;;;;;;5052469;28;20220;-70
2021/10/19 03:37:16;;;;;;;14.25;12.10;;;8.80;99.90;;;;;;5057564;28;20221;-70
2021/10/19 03:39:47;;;;;;;17.75;11.60;;;8.80;99.90;;;;;;5071804;28;20224;-70
2021/10/19 03:42:18;;;;;;;12.32;11.05;;;8.80;99.90;;;;;;5069140;28;20681;-70
2021/10/19 03:44:48;;;;;;;19.10;12.05;;;8.70;99.90;;;;;;5067072;28;20224;-69
2021/10/19 03:47:19;;;;;;;13.52;11.55;;;8.70;99.90;;;;;;5055927;28;20335;-70
2021/10/19 03:49:50;;;;;;;14.27;11.27;;;8.70;99.90;;;;;;5051755;28;20642;-70
2021/10/19 03:52:23;;;;;;;12.25;10.90;;;8.70;99.90;;;;;;5049000;28;20232;-70
2021/10/19 03:54:53;;;;;;;12.68;11.48;;;8.60;99.90;;;;;;5065475;28;20217;-70
2021/10/19 03:57:24;;;;;;;12.27;11.10;;;8.60;99.90;;;;;;5057186;28;20217;-70
2021/10/19 03:59:55;;;;;;;15.50;11.00;;;8.60;99.90;;;;;;5071482;28;20221;-70
2021/10/19 04:02:26;;;;;;;12.95;11.55;;;8.60;99.90;;;;;;5052155;28;20698;-70
2021/10/19 04:04:57;;;;;;;14.27;11.15;;;8.60;99.90;;;;;;5063189;28;20213;-70
2021/10/19 04:07:29;;;;;;;13.02;11.05;;;8.60;99.90;;;;;;5055124;28;20245;-70
2021/10/19 04:10:00;;;;;;;12.30;10.80;;;8.50;99.90;;;;;;5063211;28;20263;-70
2021/10/19 04:12:31;;;;;;;12.75;10.60;;;8.50;99.90;;;;;;5051456;28;20572;-70
2021/10/19 04:15:01;;;;;;;12.40;11.18;;;8.40;99.90;;;;;;5056473;28;20236;-70
2021/10/19 04:17:32;;;;;;;12.43;10.98;;;8.40;99.90;;;;;;5041688;28;20666;-71
2021/10/19 04:20:03;;;;;;;11.70;10.07;;;8.40;99.90;;;;;;5066650;28;20560;-70
2021/10/19 04:22:36;;;;;;;17.35;10.90;;;8.40;99.90;;;;;;5063627;28;20513;-70
2021/10/19 04:25:08;;;;;;;13.88;12.38;;;8.30;99.90;;;;;;5071074;28;20213;-70
2021/10/19 04:27:38;;;;;;;12.98;11.57;;;8.30;99.90;;;;;;5048294;28;20709;-70
2021/10/19 04:30:10;;;;;;;14.73;10.73;;;8.30;99.90;;;;;;5051119;28;20210;-70
2021/10/19 04:32:41;;;;;;;14.10;12.30;;;8.20;99.90;;;;;;5059717;28;20233;-70
2021/10/19 04:35:13;;;;;;;13.50;11.32;;;8.20;99.90;;;;;;5063320;28;20208;-70
2021/10/19 04:37:45;;;;;;;12.85;11.55;;;8.10;99.90;;;;;;5045427;28;20213;-69
2021/10/19 04:40:16;;;;;;;14.60;12.52;;;8.10;99.90;;;;;;5059343;28;20672;-70
2021/10/19 04:42:47;;;;;;;15.57;12.57;;;8.00;99.90;;;;;;5065880;28;20236;-70
2021/10/19 04:45:18;;;;;;;15.18;11.65;;;8.20;99.90;;;;;;5054268;28;20214;-70
2021/10/19 04:47:49;;;;;;;14.10;11.65;;;8.20;99.90;;;;;;5057620;28;20233;-70
2021/10/19 04:50:20;;;;;;;15.15;12.07;;;8.20;99.90;;;;;;5067201;28;20242;-70
2021/10/19 04:52:52;;;;;;;14.07;12.63;;;8.20;99.90;;;;;;5047584;28;20237;-69
2021/10/19 04:55:23;;;;;;;15.02;12.27;;;8.20;99.90;;;;;;5057799;28;20217;-70
2021/10/19 04:57:54;;;;;;;16.73;12.68;;;8.10;99.90;;;;;;5055569;28;20220;-70
2021/10/19 05:00:24;;;;;;;14.05;12.20;;;8.10;99.90;;;;;;5070489;28;20224;-70
2021/10/19 05:02:55;;;;;;;15.75;12.80;;;8.00;99.90;;;;;;5057987;28;20210;-70
2021/10/19 05:05:27;;;;;;;13.60;11.90;;;8.00;99.90;;;;;;5050155;28;20213;-70
2021/10/19 05:07:59;;;;;;;16.23;12.10;;;8.00;99.90;;;;;;5066404;28;20259;-70
2021/10/19 05:10:30;;;;;;;17.67;13.05;;;8.00;99.90;;;;;;5059143;28;20217;-70
2021/10/19 05:13:01;;;;;;;14.43;12.75;;;7.90;99.90;;;;;;5065581;28;20721;-70
2021/10/19 05:15:33;;;;;;;13.88;11.77;;;7.90;99.90;;;;;;5051532;28;20221;-69
2021/10/19 05:18:07;;;;;;;15.02;12.30;;;7.90;99.90;;;;;;5059130;28;20243;-69
2021/10/19 05:20:38;;;;;;;15.07;11.73;;;8.00;99.90;;;;;;5069737;28;20217;-70
2021/10/19 05:23:10;;;;;;;16.98;12.75;;;7.90;99.90;;;;;;5055838;28;20220;-70
2021/10/19 05:25:41;;;;;;;13.82;11.13;;;7.90;99.90;;;;;;5045928;28;20221;-68
2021/10/19 05:28:12;;;;;;;15.77;11.38;;;7.90;99.90;;;;;;5045810;28;20209;-69
2021/10/19 05:30:43;;;;;;;14.73;11.93;;;7.90;99.90;;;;;;5069806;28;20587;-70
2021/10/19 05:33:14;;;;;;;14.10;12.60;;;7.90;99.90;;;;;;5040495;28;20226;-67
2021/10/19 05:35:44;;;;;;;16.58;13.43;;;7.90;99.90;;;;;;5060236;28;20334;-68
2021/10/19 05:38:17;;;;;;;19.27;13.65;;;8.00;99.90;;;;;;5048958;28;20220;-67
2021/10/19 05:40:48;;;;;;;14.50;12.43;;;8.00;99.90;;;;;;5061905;28;20676;-70
2021/10/19 05:43:18;;;;;;;16.50;13.48;;;8.00;99.90;;;;;;5060273;28;20224;-70
2021/10/19 05:45:50;;;;;;;15.50;12.75;;;8.00;99.90;;;;;;5062179;28;20221;-70
2021/10/19 05:48:21;;;;;;;15.48;12.77;;;8.00;99.90;;;;;;5064909;28;20240;-70
2021/10/19 05:50:51;;;;;;;15.65;13.75;;;8.10;99.90;;;;;;5049312;28;20224;-70
2021/10/19 05:53:24;;;;;;;14.18;12.70;;;8.10;99.90;;;;;;5046849;28;20321;-70
2021/10/19 05:55:55;;;;;;;15.43;13.30;;;8.10;99.90;;;;;;5052098;28;20669;-70
2021/10/19 05:58:26;;;;;;;16.20;13.20;;;8.10;99.90;;;;;;5058742;28;20216;-70
2021/10/19 06:00:57;;;;;;;14.23;12.73;;;8.10;99.90;;;;;;5063074;28;20206;-70
2021/10/19 06:03:28;;;;;;;14.80;12.75;;;8.00;99.90;;;;;;5057311;28;20257;-69
2021/10/19 06:05:59;;;;;;;15.65;13.52;;;8.00;99.90;;;;;;5052840;28;20328;-70
2021/10/19 06:08:31;;;;;;;16.73;13.18;;;8.00;99.90;;;;;;5057846;28;20221;-70
2021/10/19 06:11:02;;;;;;;14.98;13.05;;;7.90;99.90;;;;;;5060173;28;20243;-70
2021/10/19 06:13:33;;;;;;;19.23;14.52;;;7.80;99.90;;;;;;5059716;28;20229;-70
2021/10/19 06:16:04;;;;;;;17.98;14.02;;;7.80;99.90;;;;;;5051766;28;20241;-70
2021/10/19 06:18:35;;;;;;;18.80;15.10;;;7.80;99.90;;;;;;5052849;28;20228;-70
2021/10/19 06:21:11;;;;;;;18.65;15.80;;;7.70;99.90;;;;;;5044644;28;20610;-70
2021/10/19 06:23:43;;;;;;;17.88;15.98;;;7.60;99.90;;;;;;5054815;28;20505;-69
2021/10/19 06:26:14;;;;;;;19.13;16.73;;;7.70;99.90;;;;;;5066747;28;20260;-70
2021/10/19 06:28:45;;;;;;;17.90;16.08;;;7.60;99.90;;;;;;5059349;28;20560;-70
2021/10/19 06:31:16;;;;;;;20.48;16.85;;;7.50;99.90;;;;;;5051613;28;20236;-70
2021/10/19 06:33:47;;;;;;;19.52;16.63;;;7.40;99.90;;;;;;5056792;28;20275;-70
2021/10/19 06:36:17;;;;;;;20.25;18.13;;;7.40;99.90;;;;;;5057703;28;20216;-70
2021/10/19 06:38:50;;;;;;;21.55;18.70;;;7.40;99.90;;;;;;5053428;28;20224;-70
2021/10/19 06:41:20;;;;;;;20.88;18.25;;;7.40;99.90;;;;;;5057748;28;20217;-69
2021/10/19 06:43:51;;;;;;;21.08;17.58;;;7.50;99.90;;;;;;5053276;28;20213;-70
2021/10/19 06:46:42;;;;;;;22.33;17.67;;;7.50;99.90;;;;;;5053805;28;20241;-70
2021/10/19 06:49:13;;;;;;;21.27;17.92;;;7.40;99.90;;;;;;5061918;28;20259;-67
2021/10/19 06:51:44;;;;;;;20.35;17.73;;;7.30;99.90;;;;;;5056124;28;20313;-67
2021/10/19 06:54:16;;;;;;;20.60;18.27;;;7.30;99.90;;;;;;5053663;28;20226;-67
2021/10/19 06:56:47;;;;;;;23.15;19.17;;;7.20;99.90;;;;;;5053639;28;20344;-67
2021/10/19 06:59:18;;;;;;;20.10;17.33;;;7.20;99.90;;;;;;5054316;28;20206;-67
2021/10/19 07:01:49;;;;;;;21.73;17.67;;;7.20;99.90;;;;;;5045623;28;20232;-69
2021/10/19 07:04:20;;;;;;;22.45;18.00;;;7.10;99.90;;;;;;5056476;28;20315;-70
2021/10/19 07:06:50;;;;;;;18.33;16.42;;;7.00;99.90;;;;;;5056760;28;20221;-67
2021/10/19 07:09:23;;;;;;;24.00;18.27;;;7.00;99.90;;;;;;5058471;28;20539;-69
2021/10/19 07:11:54;;;;;;;19.38;16.30;;;7.00;99.90;;;;;;5051919;28;20221;-69
2021/10/19 07:14:25;;;;;;;19.23;16.20;;;7.00;99.90;;;;;;5068584;28;20225;-70
2021/10/19 07:16:57;;;;;;;22.10;15.82;;;7.00;99.90;;;;;;5062375;28;20589;-70
2021/10/19 07:19:28;;;;;;;21.17;17.70;;;7.00;99.90;;;;;;5061009;28;20215;-70
2021/10/19 07:21:59;;;;;;;17.63;15.75;;;6.90;99.90;;;;;;5055207;28;20225;-70
2021/10/19 07:24:31;;;;;;;18.27;15.77;;;6.80;99.90;;;;;;5051434;28;20224;-70
2021/10/19 07:27:03;;;;;;;18.10;15.88;;;6.80;99.90;;;;;;5055092;28;20600;-70
2021/10/19 07:29:34;;;;;;;18.40;15.88;;;6.70;99.90;;;;;;5062539;28;20224;-67
2021/10/19 07:32:05;;;;;;;18.17;16.15;;;6.80;99.90;;;;;;5052222;28;20213;-67
2021/10/19 07:34:36;;;;;;;21.27;17.17;;;6.80;99.90;;;;;;5066201;28;20229;-67
2021/10/19 07:37:07;;;;;;;18.77;16.77;;;6.70;99.90;;;;;;5069708;28;20213;-68
2021/10/19 07:39:39;;;;;;;20.52;16.77;;;6.70;99.90;;;;;;5071504;28;20213;-67
2021/10/19 07:42:10;;;;;;;16.67;14.88;;;6.70;99.90;;;;;;5058336;28;20222;-67
2021/10/19 07:44:41;;;;;;;18.75;14.90;;;6.70;99.90;;;;;;5064014;28;20553;-69
2021/10/19 07:47:12;;;;;;;19.17;16.23;;;6.80;99.90;;;;;;5066151;28;20225;-70
2021/10/19 07:49:43;;;;;;;20.48;16.17;;;6.80;99.90;;;;;;5063613;28;20213;-69
2021/10/19 07:52:13;;;;;;;18.65;16.15;;;6.80;99.90;;;;;;5061708;28;20216;-69
2021/10/19 07:54:46;;;;;;;18.48;16.58;;;6.80;99.90;;;;;;5055977;28;20221;-69
2021/10/19 07:57:17;;;;;;;19.45;17.00;;;6.70;99.90;;;;;;5049671;28;20248;-69
2021/10/19 07:59:48;;;;;;;17.17;15.32;;;6.70;99.90;;;;;;5066760;28;20222;-70
2021/10/19 08:02:19;;;;;;;16.52;14.82;;;6.70;99.90;;;;;;5056934;28;20225;-70
2021/10/19 08:04:49;;;;;;;18.83;15.93;;;6.60;99.90;;;;;;5059636;28;20217;-70
2021/10/19 08:07:21;;;;;;;15.65;14.05;;;6.60;99.90;;;;;;5054656;28;20320;-67
2021/10/19 08:09:54;;;;;;;16.33;14.57;;;6.70;99.90;;;;;;5066071;28;20213;-67
2021/10/19 08:12:24;;;;;;;15.85;14.13;;;6.70;99.90;;;;;;5060496;28;20225;-68
2021/10/19 08:15:00;;;;;;;16.58;13.80;;;6.70;99.90;;;;;;5051226;28;20217;-67
2021/10/19 08:17:31;;;;;;;14.40;12.90;;;6.60;99.90;;;;;;5056942;28;20232;-67
2021/10/19 08:20:02;;;;;;;14.38;12.85;;;6.60;99.90;;;;;;5056032;28;20612;-68
2021/10/19 08:22:34;;;;;;;16.27;12.95;;;6.60;99.90;;;;;;5052353;28;20209;-68
2021/10/19 08:25:09;;;;;;;14.20;12.23;;;6.50;99.90;;;;;;5068618;28;20209;-67
2021/10/19 08:27:41;;;;;;;14.50;11.60;;;6.50;99.90;;;;;;5060123;28;20670;-70
2021/10/19 08:30:13;;;;;;;13.73;11.90;;;6.50;99.90;;;;;;5071337;28;20212;-69
2021/10/19 08:32:44;;;;;;;13.13;11.45;;;6.40;99.90;;;;;;5067924;28;20224;-69
2021/10/19 08:35:17;;;;;;;13.23;11.82;;;6.40;99.90;;;;;;5059495;28;20225;-69
2021/10/19 08:37:48;;;;;;;12.00;10.75;;;6.40;99.90;;;;;;5064080;28;20221;-69
2021/10/19 08:40:21;;;;;;;16.48;11.85;;;6.50;99.90;;;;;;5052191;28;20230;-70
2021/10/19 08:42:53;;;;;;;11.95;10.73;;;6.50;99.90;;;;;;5056337;28;20736;-70
2021/10/19 08:45:25;;;;;;;13.48;11.00;;;6.40;99.90;;;;;;5070337;28;20220;-70
2021/10/19 08:47:56;;;;;;;16.45;12.05;;;6.50;99.90;;;;;;5054133;28;20233;-70
2021/10/19 08:50:26;;;;;;;15.30;10.88;;;6.50;99.90;;;;;;5053878;28;20248;-70
2021/10/19 08:52:57;;;;;;;13.02;10.20;;;6.50;99.90;;;;;;5064053;28;20348;-67
2021/10/19 08:55:30;;;;;;;11.32;10.05;;;6.50;99.90;;;;;;5059175;28;20229;-68
2021/10/19 08:58:04;;;;;;;12.25;10.80;;;6.50;99.90;;;;;;5056525;28;20553;-67
2021/10/19 09:00:35;;;;;;;13.10;9.60;;;6.50;99.90;;;;;;5069524;28;20303;-68
2021/10/19 09:03:06;;;;;;;11.82;10.15;;;6.50;99.90;;;;;;5065934;28;20225;-68
2021/10/19 09:05:46;;;;;;;11.45;10.25;;;6.40;99.90;;;;;;5070127;28;20343;-68
2021/10/19 09:08:20;;;;;;;11.35;8.55;;;6.40;99.90;;;;;;5047198;28;20213;-68
2021/10/19 09:11:15;;;;;;;12.65;9.63;;;6.40;99.90;;;;;;5054257;28;20571;-68
2021/10/19 09:13:54;;;;;;;11.10;9.77;;;6.40;99.90;;;;;;5049540;28;20217;-68
2021/10/19 09:16:37;;;;;;;11.48;9.65;;;6.30;99.90;;;;;;5057241;28;20231;-68
2021/10/19 09:19:13;;;;;;;14.85;9.10;;;6.30;99.90;;;;;;5045502;28;20715;-68
2021/10/19 09:21:51;;;;;;;15.35;10.90;;;6.30;99.90;;;;;;5068009;28;20247;-68
2021/10/19 09:24:28;;;;;;;12.10;10.90;;;6.30;99.90;;;;;;5069171;28;20216;-68
2021/10/19 09:27:02;;;;;;;15.25;10.60;;;6.30;99.90;;;;;;5059031;28;20232;-68
2021/10/19 09:29:36;;;;;;;14.13;10.50;;;6.30;99.90;;;;;;5059644;28;20225;-67
2021/10/19 09:32:08;;;;;;;15.98;11.02;;;6.40;99.90;;;;;;5047970;28;20672;-67
2021/10/19 09:34:39;;;;;;;12.73;10.93;;;6.40;99.90;;;;;;5048246;28;20208;-67
2021/10/19 09:37:12;;;;;;;11.23;9.63;;;6.40;99.90;;;;;;5047459;28;20218;-67
2021/10/19 09:39:48;;;;;;;13.60;10.45;;;6.30;99.90;;;;;;5033807;28;20312;-68
2021/10/19 09:42:24;;;;;;;15.68;10.55;;;6.30;99.90;;;;;;5058311;28;20217;-67
2021/10/19 09:44:57;;;;;;;14.77;9.10;;;6.30;99.90;;;;;;5057788;28;20697;-68
2021/10/19 09:47:29;;;;;;;12.50;11.20;;;6.20;99.90;;;;;;5051920;28;20265;-67
2021/10/19 09:50:00;;;;;;;10.82;9.02;;;6.10;99.90;;;;;;5069535;28;20570;-67
2021/10/19 09:52:36;;;;;;;13.70;9.65;;;6.10;99.90;;;;;;5056387;28;20267;-67
2021/10/19 09:55:12;;;;;;;11.98;8.70;;;6.10;99.90;;;;;;5065453;28;20225;-67
2021/10/19 09:57:45;;;;;;;12.90;9.25;;;6.10;99.90;;;;;;5047005;28;20668;-68
2021/10/19 10:00:16;;;;;;;10.70;9.02;;;6.10;99.90;;;;;;5049586;28;20572;-67
2021/10/19 10:02:52;;;;;;;10.00;9.00;;;6.10;99.90;;;;;;5061991;28;20221;-67
2021/10/19 10:05:23;;;;;;;12.32;9.15;;;6.10;99.90;;;;;;5059197;28;20650;-67
2021/10/19 10:07:55;;;;;;;11.63;9.63;;;6.10;99.90;;;;;;5046712;28;20223;-67
2021/10/19 10:10:27;;;;;;;11.32;8.30;;;6.00;99.90;;;;;;5049450;28;20302;-67
2021/10/19 10:13:05;;;;;;;10.55;8.25;;;6.00;99.90;;;;;;5062269;28;20220;-67
2021/10/19 10:15:37;;;;;;;12.25;9.05;;;5.80;99.90;;;;;;5050142;28;20348;-67
2021/10/19 10:18:11;;;;;;;12.68;9.55;;;5.90;99.90;;;;;;5054737;28;20565;-67
2021/10/19 10:20:44;;;;;;;9.85;8.68;;;5.90;99.90;;;;;;5064824;28;20580;-67
2021/10/19 10:23:21;;;;;;;9.30;7.97;;;5.80;99.90;;;;;;5058627;28;20225;-67
2021/10/19 10:25:56;;;;;;;12.98;9.80;;;5.80;99.90;;;;;;5056822;28;20589;-67
2021/10/19 10:28:30;;;;;;;9.82;8.82;;;5.80;99.90;;;;;;5058344;28;20254;-67
2021/10/19 10:31:03;;;;;;;10.20;8.98;;;5.80;99.90;;;;;;5065709;28;20213;-67
2021/10/19 10:33:35;;;;;;;10.25;8.85;;;5.80;99.90;;;;;;5047392;28;20218;-68
2021/10/19 10:36:08;;;;;;;9.95;8.23;;;5.70;99.90;;;;;;5042532;28;20583;-67
2021/10/19 10:38:52;;;;;;;12.48;8.73;;;5.70;99.90;;;;;;5043804;28;20217;-67
2021/10/19 10:41:23;;;;;;;12.15;8.90;;;5.70;99.90;;;;;;5056629;28;20247;-67
2021/10/19 10:44:03;;;;;;;10.23;8.43;;;5.80;99.90;;;;;;5053499;28;20232;-67
2021/10/19 10:46:34;;;;;;;12.82;9.70;;;5.80;99.90;;;;;;5056648;28;20259;-68
2021/10/19 10:49:11;;;;;;;14.52;9.40;;;5.80;99.90;;;;;;5054118;28;20213;-67
2021/10/19 10:51:44;;;;;;;12.73;9.48;;;5.70;99.90;;;;;;5072699;28;20635;-68
2021/10/19 10:54:20;;;;;;;14.38;10.27;;;5.80;99.90;;;;;;5049238;28;20598;-67
2021/10/19 10:56:53;;;;;;;12.43;10.00;;;5.80;99.90;;;;;;5070438;28;20675;-68
2021/10/19 10:59:32;;;;;;;14.80;9.82;;;5.80;99.90;;;;;;5059615;28;20221;-67
2021/10/19 11:02:09;;;;;;;13.93;11.00;;;5.80;99.90;;;;;;5053231;28;20225;-67
2021/10/19 11:04:49;;;;;;;12.50;10.35;;;5.80;99.90;;;;;;5063333;28;20216;-67
2021/10/19 11:07:30;;;;;;;12.25;10.93;;;5.80;99.90;;;;;;5059453;28;20234;-67
2021/10/19 11:10:10;;;;;;;16.60;12.13;;;5.80;99.90;;;;;;5059007;28;20220;-67
2021/10/19 11:12:44;;;;;;;15.50;10.57;;;5.90;99.90;;;;;;5049343;28;20221;-67
2021/10/19 11:15:19;;;;;;;13.38;10.98;;;5.90;99.90;;;;;;5060906;28;20713;-67
2021/10/19 11:17:52;;;;;;;18.02;11.00;;;5.80;99.90;;;;;;5064578;28;20236;-67
2021/10/19 11:20:25;;;;;;;14.27;11.13;;;5.80;99.90;;;;;;5059624;28;20214;-67
2021/10/19 11:22:56;;;;;;;12.65;11.13;;;5.80;99.90;;;;;;5055989;28;20229;-68
2021/10/19 11:25:27;;;;;;;12.68;10.35;;;5.90;99.90;;;;;;5061620;28;20598;-68
2021/10/19 11:27:58;;;;;;;15.68;11.70;;;5.90;99.90;;;;;;5052492;28;20232;-67
2021/10/19 11:30:30;;;;;;;12.93;11.55;;;5.90;99.90;;;;;;5050402;28;20226;-67
2021/10/19 11:33:01;;;;;;;14.38;11.70;;;5.90;99.90;;;;;;5057247;28;20667;-68
2021/10/19 11:35:32;;;;;;;15.30;11.55;;;5.90;99.90;;;;;;5053436;28;20231;-68
2021/10/19 11:38:03;;;;;;;16.73;12.50;;;5.90;99.90;;;;;;5056143;28;20630;-68
2021/10/19 11:40:34;;;;;;;12.38;10.75;;;5.90;99.90;;;;;;5062187;28;20594;-67
2021/10/19 11:43:05;;;;;;;17.42;12.60;;;6.00;99.90;;;;;;5070057;28;21094;-68
2021/10/19 11:45:38;;;;;;;15.02;11.07;;;6.10;99.90;;;;;;5060965;28;20576;-68
2021/10/19 11:48:10;;;;;;;16.08;10.95;;;6.00;99.90;;;;;;5049470;28;20294;-67
2021/10/19 11:50:45;;;;;;;14.48;11.65;;;6.10;99.90;;;;;;5072463;28;20246;-68
2021/10/19 11:53:17;;;;;;;15.57;12.30;;;6.10;99.90;;;;;;5057524;28;20221;-68
2021/10/19 11:55:55;;;;;;;12.20;10.80;;;6.20;99.90;;;;;;5066758;28;20558;-67
2021/10/19 11:58:26;;;;;;;14.85;13.25;;;6.10;99.90;;;;;;5041110;28;20430;-67
2021/10/19 12:00:58;;;;;;;18.55;11.90;;;6.10;99.90;;;;;;5048353;28;20214;-68
2021/10/19 12:03:33;;;;;;;14.68;11.85;;;6.00;99.90;;;;;;5052568;28;20221;-67
2021/10/19 12:06:11;;;;;;;13.23;10.75;;;6.00;99.90;;;;;;5071496;28;20204;-69
2021/10/19 12:08:47;;;;;;;13.98;11.60;;;6.00;99.90;;;;;;5063448;28;20324;-68
2021/10/19 12:11:24;;;;;;;13.80;11.52;;;5.90;99.90;;;;;;5053680;28;20220;-68
2021/10/19 12:13:56;;;;;;;12.63;10.60;;;5.90;99.90;;;;;;5058967;28;20307;-68
2021/10/19 12:16:30;;;;;;;15.13;11.35;;;5.90;99.90;;;;;;5060666;28;20676;-68
2021/10/19 12:19:02;;;;;;;16.83;12.57;;;5.90;99.90;;;;;;5054877;28;20212;-68
2021/10/19 12:21:34;;;;;;;17.60;12.35;;;5.90;99.90;;;;;;5070869;28;20240;-68
2021/10/19 12:24:05;;;;;;;15.50;12.45;;;5.90;99.90;;;;;;5058868;28;20218;-69
2021/10/19 12:26:39;;;;;;;12.50;10.85;;;5.90;99.90;;;;;;5062929;28;20220;-68
2021/10/19 12:29:14;;;;;;;15.18;12.23;;;5.90;99.90;;;;;;5070838;28;20213;-68
2021/10/19 12:31:48;;;;;;;12.32;10.90;;;5.80;99.90;;;;;;5062445;28;20235;-69
2021/10/19 12:34:25;;;;;;;14.57;11.52;;;5.70;99.90;;;;;;5053983;28;20217;-69
2021/10/19 12:37:01;;;;;;;14.50;11.88;;;5.70;99.90;;;;;;5049418;28;20229;-68
2021/10/19 12:39:37;;;;;;;13.60;11.98;;;5.80;99.90;;;;;;5050534;28;20236;-68
2021/10/19 12:42:08;;;;;;;14.50;12.30;;;5.80;99.90;;;;;;5059251;28;20221;-69
2021/10/19 12:44:42;;;;;;;14.48;12.77;;;5.80;99.90;;;;;;5050396;28;20212;-69
2021/10/19 12:47:16;;;;;;;12.88;11.52;;;5.80;99.90;;;;;;5054844;28;20229;-69
2021/10/19 12:49:47;;;;;;;14.93;11.75;;;5.80;99.90;;;;;;5051955;28;20291;-68
2021/10/19 12:52:17;;;;;;;15.00;11.80;;;5.70;99.90;;;;;;5048305;28;20232;-68
2021/10/19 12:54:48;;;;;;;14.80;11.77;;;5.70;99.90;;;;;;5063495;28;20266;-68
2021/10/19 12:57:19;;;;;;;15.10;12.02;;;5.80;99.90;;;;;;5045861;28;20329;-68
2021/10/19 12:59:50;;;;;;;13.23;11.50;;;5.80;99.90;;;;;;5058704;28;20210;-68
2021/10/19 13:02:25;;;;;;;13.85;10.32;;;5.70;99.90;;;;;;5049023;28;20233;-68
2021/10/19 13:05:01;;;;;;;14.32;11.75;;;5.70;99.90;;;;;;5056887;28;20244;-68